Time;durP1;ratioP1;P1;durP2;ratioP2;P2;SDS_P1;SDS_P2;PMS_P1;PMS_P2;Temp;Humidity;BMP_temperature;BMP_pressure;BME280_temperature;BME280_humidity;BME280_pressure;Samples;Min_cycle;Max_cycle;Signal;HPM_P1;HPM_P2
2023/09/13 00:02:22;;;;;;;7.10;6.37;;;23.30;99.90;;;;;;10339438;28;20228;-81
2023/09/13 00:07:24;;;;;;;7.00;6.50;;;23.30;99.90;;;;;;10340081;28;20230;-81
2023/09/13 00:12:26;;;;;;;8.67;7.07;;;23.20;99.90;;;;;;10340228;28;20250;-81
2023/09/13 00:17:29;;;;;;;7.37;6.60;;;23.20;99.90;;;;;;10340197;28;20235;-81
2023/09/13 00:22:31;;;;;;;7.60;6.90;;;23.20;99.90;;;;;;10339348;28;20216;-80
2023/09/13 00:27:34;;;;;;;13.03;8.30;;;23.30;99.90;;;;;;10340615;28;20271;-80
2023/09/13 00:32:37;;;;;;;9.80;8.17;;;23.20;99.90;;;;;;10337600;28;20224;-80
2023/09/13 00:37:39;;;;;;;8.77;7.97;;;23.10;99.90;;;;;;10337923;28;20207;-80
2023/09/13 00:42:41;;;;;;;10.43;9.53;;;23.00;99.90;;;;;;10337462;28;20224;-81
2023/09/13 00:47:45;;;;;;;13.40;12.40;;;22.70;99.90;;;;;;10339378;28;20216;-81
2023/09/13 00:52:48;;;;;;;18.00;16.53;;;22.40;99.90;;;;;;10339214;28;20851;-81
2023/09/13 00:57:51;;;;;;;17.90;16.80;;;22.00;99.90;;;;;;10329456;28;20202;-81
2023/09/13 01:02:55;;;;;;;20.30;18.70;;;21.60;99.90;;;;;;10335418;28;20234;-81
2023/09/13 01:07:57;;;;;;;20.53;19.03;;;21.40;99.90;;;;;;10322760;28;20196;-81
2023/09/13 01:12:59;;;;;;;20.90;19.40;;;21.30;99.90;;;;;;10339911;28;20239;-79
2023/09/13 01:18:09;;;;;;;20.87;19.37;;;21.10;99.90;;;;;;10340897;28;20199;-81
2023/09/13 01:23:27;;;;;;;21.50;19.90;;;20.90;99.90;;;;;;10340235;28;20219;-80
2023/09/13 01:28:35;;;;;;;20.03;18.70;;;20.90;99.90;;;;;;10340578;28;20223;-81
2023/09/13 01:33:37;;;;;;;19.70;18.20;;;20.90;99.90;;;;;;10340771;28;20426;-81
2023/09/13 01:38:40;;;;;;;21.43;19.77;;;20.90;99.90;;;;;;10341967;28;20283;-81
2023/09/13 01:43:44;;;;;;;19.07;17.57;;;20.80;99.90;;;;;;10341595;28;20231;-80
2023/09/13 01:48:48;;;;;;;19.23;17.83;;;20.80;99.90;;;;;;10346674;28;20231;-80
2023/09/13 01:53:50;;;;;;;18.47;16.87;;;20.80;99.90;;;;;;10352457;28;20683;-81
2023/09/13 01:58:54;;;;;;;17.57;16.40;;;20.70;99.90;;;;;;10342875;28;20218;-80
2023/09/13 02:03:57;;;;;;;18.93;17.47;;;20.70;99.90;;;;;;10341521;28;20634;-80
2023/09/13 02:08:59;;;;;;;18.50;17.10;;;20.70;99.90;;;;;;10341012;28;20204;-79
2023/09/13 02:14:02;;;;;;;18.37;17.07;;;20.70;99.90;;;;;;10339104;28;20224;-80
2023/09/13 02:19:05;;;;;;;16.10;14.90;;;20.70;99.90;;;;;;10338399;28;20204;-81
2023/09/13 02:24:07;;;;;;;16.90;15.57;;;20.70;99.90;;;;;;10336536;28;20215;-81
2023/09/13 02:29:11;;;;;;;14.73;13.67;;;20.60;99.90;;;;;;10336402;28;20681;-80
2023/09/13 02:34:13;;;;;;;15.50;14.10;;;20.60;99.90;;;;;;10337249;28;20683;-81
2023/09/13 02:39:30;;;;;;;15.73;14.43;;;20.50;99.90;;;;;;10338034;28;20200;-81
2023/09/13 02:44:35;;;;;;;14.33;13.50;;;20.50;99.90;;;;;;10343662;28;20227;-81
2023/09/13 02:49:38;;;;;;;14.30;13.40;;;20.50;99.90;;;;;;10339165;28;20204;-81
2023/09/13 02:54:40;;;;;;;14.40;13.40;;;20.50;99.90;;;;;;10326196;28;20588;-81
2023/09/13 02:59:43;;;;;;;13.90;12.70;;;20.50;99.90;;;;;;10337520;28;20278;-81
2023/09/13 03:04:49;;;;;;;13.20;12.10;;;20.50;99.90;;;;;;10338067;28;20228;-81
2023/09/13 03:09:53;;;;;;;11.80;11.00;;;20.50;99.90;;;;;;10338454;28;20250;-81
2023/09/13 03:14:57;;;;;;;13.43;12.63;;;20.40;99.90;;;;;;10337078;28;20695;-82
2023/09/13 03:20:00;;;;;;;13.60;12.80;;;20.40;99.90;;;;;;10337313;28;20303;-81
2023/09/13 03:25:05;;;;;;;10.63;9.83;;;20.40;99.90;;;;;;10339725;28;20247;-81
2023/09/13 03:30:10;;;;;;;14.10;13.23;;;20.40;99.90;;;;;;10320146;28;20276;-81
2023/09/13 03:35:12;;;;;;;12.80;11.90;;;20.40;99.90;;;;;;10338616;28;20223;-81
2023/09/13 03:40:15;;;;;;;14.57;13.37;;;20.40;99.90;;;;;;10336433;28;20231;-81
2023/09/13 03:45:18;;;;;;;14.70;13.57;;;20.50;99.90;;;;;;10317328;28;20243;-81
2023/09/13 03:50:21;;;;;;;14.13;13.20;;;20.50;99.90;;;;;;10337092;28;20570;-81
2023/09/13 03:55:24;;;;;;;15.30;14.30;;;20.50;99.90;;;;;;10336634;28;20235;-81
2023/09/13 04:00:27;;;;;;;14.97;13.80;;;20.50;99.90;;;;;;10337331;28;20227;-80
2023/09/13 04:05:30;;;;;;;15.00;13.90;;;20.50;99.90;;;;;;10344194;28;20228;-81
2023/09/13 04:10:32;;;;;;;14.27;13.27;;;20.50;99.90;;;;;;10348427;28;20271;-81
2023/09/13 04:15:36;;;;;;;15.40;13.97;;;20.50;99.90;;;;;;10346863;28;20231;-79
2023/09/13 04:20:39;;;;;;;14.30;13.27;;;20.50;99.90;;;;;;10344116;28;20200;-80
2023/09/13 04:25:41;;;;;;;11.80;11.00;;;20.50;99.90;;;;;;10342800;28;20644;-81
2023/09/13 04:30:47;;;;;;;14.07;13.00;;;20.50;99.90;;;;;;10342265;28;20228;-81
2023/09/13 04:35:49;;;;;;;12.07;11.27;;;20.50;99.90;;;;;;10342284;28;20192;-80
2023/09/13 04:40:51;;;;;;;11.93;11.07;;;20.40;99.90;;;;;;10342122;28;20211;-80
2023/09/13 04:45:55;;;;;;;12.73;10.60;;;20.50;99.90;;;;;;10340335;28;20236;-81
2023/09/13 04:50:58;;;;;;;13.30;12.30;;;20.50;99.90;;;;;;10342048;28;20207;-79
2023/09/13 04:56:01;;;;;;;11.83;10.83;;;20.50;99.90;;;;;;10343896;28;20196;-81
2023/09/13 05:01:07;;;;;;;12.23;11.37;;;20.50;99.90;;;;;;10341230;28;20228;-81
2023/09/13 05:06:09;;;;;;;9.40;8.70;;;20.60;99.90;;;;;;10341967;28;20220;-81
2023/09/13 05:11:12;;;;;;;12.20;11.40;;;20.60;99.90;;;;;;10345078;28;20216;-81
2023/09/13 05:16:19;;;;;;;11.97;11.00;;;20.60;99.90;;;;;;10345818;28;20291;-81
2023/09/13 05:21:21;;;;;;;9.60;8.63;;;20.60;99.90;;;;;;10350469;28;20839;-80
2023/09/13 05:26:23;;;;;;;11.70;10.90;;;20.60;99.90;;;;;;10348370;28;20314;-79
2023/09/13 05:31:26;;;;;;;11.23;10.30;;;20.70;99.90;;;;;;10357456;28;20219;-81
2023/09/13 05:36:28;;;;;;;10.43;9.73;;;20.70;99.90;;;;;;10351328;28;20286;-81
2023/09/13 05:41:31;;;;;;;11.47;10.67;;;20.70;99.90;;;;;;10343464;28;20595;-80
2023/09/13 05:46:34;;;;;;;10.73;9.83;;;20.80;99.90;;;;;;10338344;28;20298;-80
2023/09/13 05:51:36;;;;;;;11.43;10.40;;;20.80;99.90;;;;;;10350478;28;20773;-81
2023/09/13 05:56:38;;;;;;;10.03;9.23;;;20.90;99.90;;;;;;10350169;28;20195;-81
2023/09/13 06:01:42;;;;;;;11.13;10.23;;;21.00;99.90;;;;;;10329062;28;20232;-81
2023/09/13 06:06:44;;;;;;;10.27;9.23;;;21.00;99.90;;;;;;10334516;28;20228;-80
2023/09/13 06:11:46;;;;;;;9.40;8.67;;;21.00;99.90;;;;;;10333294;28;20211;-80
2023/09/13 06:16:50;;;;;;;9.77;8.87;;;21.00;99.90;;;;;;10331241;28;20218;-81
2023/09/13 06:21:52;;;;;;;9.80;9.10;;;21.00;99.90;;;;;;10334797;28;20219;-82
2023/09/13 06:26:55;;;;;;;9.33;8.73;;;21.00;99.90;;;;;;10330926;28;20247;-81
2023/09/13 06:31:59;;;;;;;9.07;8.47;;;21.00;99.90;;;;;;10334137;28;20709;-83
2023/09/13 06:37:02;;;;;;;8.37;7.77;;;21.10;99.90;;;;;;10334052;28;20294;-82
2023/09/13 06:42:06;;;;;;;8.47;7.87;;;21.10;99.90;;;;;;10329255;28;20239;-81
2023/09/13 06:47:10;;;;;;;8.37;7.77;;;21.10;99.90;;;;;;10329794;28;20220;-82
2023/09/13 06:52:12;;;;;;;8.50;7.80;;;21.10;99.90;;;;;;10335599;28;20721;-81
2023/09/13 06:57:15;;;;;;;10.17;7.73;;;21.10;99.90;;;;;;10329884;28;20200;-82
2023/09/13 07:02:18;;;;;;;8.30;7.70;;;21.30;99.90;;;;;;10333927;28;20314;-82
2023/09/13 07:07:20;;;;;;;6.47;5.87;;;21.50;99.90;;;;;;10329425;28;20596;-81
2023/09/13 07:12:22;;;;;;;6.93;6.43;;;21.80;99.90;;;;;;10328862;28;20784;-82
2023/09/13 07:17:26;;;;;;;6.27;5.80;;;22.00;99.90;;;;;;10332732;28;20196;-80
2023/09/13 07:22:28;;;;;;;6.90;6.27;;;22.10;99.90;;;;;;10334944;28;20690;-81
2023/09/13 07:27:30;;;;;;;6.07;5.67;;;22.10;99.90;;;;;;10331532;28;20279;-82
2023/09/13 07:32:34;;;;;;;6.33;5.77;;;22.10;99.90;;;;;;10333908;28;20243;-82
2023/09/13 07:37:36;;;;;;;6.33;5.83;;;22.10;99.90;;;;;;10331780;28;20667;-82
2023/09/13 07:42:38;;;;;;;6.10;5.70;;;22.10;99.90;;;;;;10337866;28;20228;-81
2023/09/13 07:47:41;;;;;;;5.80;5.40;;;22.10;99.90;;;;;;10339204;28;20216;-81
2023/09/13 07:52:43;;;;;;;5.87;5.30;;;22.20;99.90;;;;;;10336680;28;20247;-81
2023/09/13 07:57:45;;;;;;;6.60;6.00;;;22.20;99.90;;;;;;10340721;28;20732;-82
2023/09/13 08:02:49;;;;;;;6.00;5.50;;;22.30;99.90;;;;;;10339469;28;20597;-81
2023/09/13 08:07:53;;;;;;;6.13;5.63;;;22.40;99.90;;;;;;10339212;28;20597;-81
2023/09/13 08:12:55;;;;;;;5.43;5.03;;;22.40;99.90;;;;;;10335940;28;20718;-81
2023/09/13 08:17:58;;;;;;;5.30;4.80;;;22.50;99.90;;;;;;10337199;28;20192;-82
2023/09/13 08:23:01;;;;;;;5.30;4.90;;;22.60;99.90;;;;;;10338884;28;20224;-82
2023/09/13 08:28:03;;;;;;;5.57;5.07;;;22.70;99.90;;;;;;10333126;28;20251;-81
2023/09/13 08:33:10;;;;;;;4.30;4.00;;;22.80;99.90;;;;;;10340844;28;20266;-81
2023/09/13 08:38:12;;;;;;;5.53;5.13;;;22.80;99.90;;;;;;10333511;28;20722;-81
2023/09/13 08:43:16;;;;;;;4.47;4.07;;;22.80;99.90;;;;;;10333892;28;20830;-82
2023/09/13 08:48:20;;;;;;;3.73;3.43;;;22.80;99.90;;;;;;10332237;28;20208;-81
2023/09/13 08:53:25;;;;;;;4.30;3.90;;;22.80;99.90;;;;;;10333043;28;20223;-81
2023/09/13 08:58:27;;;;;;;5.43;4.10;;;22.70;99.90;;;;;;10370144;23;20255;-78
2023/09/13 09:03:32;;;;;;;4.97;4.47;;;22.70;99.90;;;;;;10414873;28;20559;-80
2023/09/13 09:08:39;;;;;;;4.63;4.33;;;22.70;99.90;;;;;;10405942;28;20281;-79
2023/09/13 09:13:44;;;;;;;5.33;4.93;;;22.70;99.90;;;;;;10381970;28;20214;-78
2023/09/13 09:18:49;;;;;;;4.30;4.00;;;22.60;99.90;;;;;;10379464;28;20219;-80
2023/09/13 09:23:51;;;;;;;4.67;4.30;;;22.60;99.90;;;;;;10408663;28;20729;-79
2023/09/13 09:28:54;;;;;;;5.50;5.10;;;22.70;99.90;;;;;;10392114;28;20581;-79
2023/09/13 09:34:04;;;;;;;4.23;3.90;;;22.80;99.90;;;;;;10410019;28;20198;-79
2023/09/13 09:39:07;;;;;;;8.40;4.23;;;22.90;99.90;;;;;;10380011;28;20234;-78
2023/09/13 09:44:09;;;;;;;4.80;4.10;;;22.90;99.90;;;;;;10393544;28;20231;-78
2023/09/13 09:49:12;;;;;;;4.30;4.00;;;22.90;99.90;;;;;;10399158;28;20658;-78
2023/09/13 09:54:14;;;;;;;4.40;4.10;;;22.90;99.90;;;;;;10397424;28;20202;-78
2023/09/13 09:59:17;;;;;;;4.10;3.70;;;22.90;99.90;;;;;;10387196;28;20705;-79
2023/09/13 10:04:22;;;;;;;5.10;4.70;;;23.00;99.90;;;;;;10393818;28;20203;-79
2023/09/13 10:09:24;;;;;;;4.80;4.50;;;23.10;99.90;;;;;;10406836;28;20226;-80
2023/09/13 10:14:27;;;;;;;4.00;3.70;;;23.20;99.90;;;;;;10402373;28;20280;-79
2023/09/13 10:19:31;;;;;;;3.73;3.43;;;23.20;99.90;;;;;;10395052;28;20219;-80
2023/09/13 10:24:36;;;;;;;6.87;4.60;;;23.10;99.90;;;;;;10411028;28;20199;-79
2023/09/13 10:29:41;;;;;;;4.20;3.83;;;23.00;99.90;;;;;;10395480;28;20309;-80
2023/09/13 10:34:49;;;;;;;4.60;4.20;;;23.00;99.90;;;;;;10378053;28;20238;-80
2023/09/13 10:39:57;;;;;;;3.90;3.70;;;23.00;99.90;;;;;;10396370;28;20613;-80
2023/09/13 10:44:59;;;;;;;4.10;3.80;;;23.00;99.90;;;;;;10396399;28;20240;-80
2023/09/13 10:50:03;;;;;;;4.70;4.30;;;23.00;99.90;;;;;;10388416;28;20223;-80
2023/09/13 10:55:07;;;;;;;4.10;3.80;;;23.00;99.90;;;;;;10400792;28;20207;-79
2023/09/13 11:00:11;;;;;;;4.27;3.97;;;22.90;99.90;;;;;;10375673;28;20238;-80
2023/09/13 11:05:15;;;;;;;7.40;4.27;;;22.90;99.90;;;;;;10404541;28;20198;-80
2023/09/13 11:10:19;;;;;;;3.93;3.67;;;23.00;99.90;;;;;;10404575;28;20731;-79
2023/09/13 11:15:23;;;;;;;4.03;3.73;;;23.20;99.90;;;;;;10390555;28;20619;-80
2023/09/13 11:20:34;;;;;;;7.30;4.53;;;23.40;99.90;;;;;;10399773;28;20230;-79
2023/09/13 11:25:39;;;;;;;4.70;4.40;;;23.60;99.90;;;;;;10409331;28;20206;-80
2023/09/13 11:30:49;;;;;;;5.50;4.70;;;23.70;99.90;;;;;;10407826;28;20213;-79
2023/09/13 11:35:52;;;;;;;6.80;4.10;;;23.90;99.90;;;;;;10398445;28;20701;-80
2023/09/13 11:40:56;;;;;;;4.60;3.77;;;24.10;99.90;;;;;;10408679;28;20216;-80
2023/09/13 11:45:59;;;;;;;4.60;4.20;;;24.20;99.90;;;;;;10398800;28;20227;-80
2023/09/13 11:51:12;;;;;;;6.30;4.77;;;24.30;99.90;;;;;;10403189;28;20213;-80
2023/09/13 11:56:32;;;;;;;4.00;3.70;;;24.40;99.90;;;;;;10402500;28;20276;-79
2023/09/13 12:01:34;;;;;;;4.93;4.13;;;24.50;99.90;;;;;;10394161;28;20207;-80
2023/09/13 12:06:45;;;;;;;4.80;3.47;;;24.50;99.90;;;;;;10405323;28;20250;-80
2023/09/13 12:11:50;;;;;;;4.50;4.10;;;24.60;99.90;;;;;;10402044;28;20491;-80
2023/09/13 12:16:52;;;;;;;5.37;4.97;;;24.70;99.90;;;;;;10417181;28;20227;-80
2023/09/13 12:21:56;;;;;;;4.73;4.33;;;24.80;99.90;;;;;;10395375;28;20211;-80
2023/09/13 12:26:58;;;;;;;3.93;3.63;;;24.80;99.90;;;;;;10397182;28;20714;-79
2023/09/13 12:32:00;;;;;;;4.77;4.37;;;24.80;99.90;;;;;;10405386;28;20210;-80
2023/09/13 12:37:04;;;;;;;5.40;3.93;;;24.70;99.90;;;;;;10406740;28;20592;-79
2023/09/13 12:42:07;;;;;;;4.20;3.90;;;24.70;99.90;;;;;;10369503;28;20199;-79
2023/09/13 12:47:10;;;;;;;4.00;3.70;;;24.70;99.90;;;;;;10371900;28;20223;-78
2023/09/13 12:52:15;;;;;;;4.03;3.63;;;24.70;99.90;;;;;;10389818;28;20276;-79
2023/09/13 12:57:18;;;;;;;4.80;3.20;;;24.70;99.90;;;;;;10389517;28;20226;-80
2023/09/13 13:02:20;;;;;;;4.00;3.60;;;24.80;99.90;;;;;;10390025;28;20255;-78
2023/09/13 13:07:27;;;;;;;4.30;4.00;;;25.00;99.90;;;;;;10388827;28;20241;-79
2023/09/13 13:12:30;;;;;;;3.97;3.53;;;25.10;99.90;;;;;;10392080;28;20203;-80
2023/09/13 13:17:34;;;;;;;3.10;2.90;;;25.10;99.90;;;;;;10388956;28;20233;-80
2023/09/13 13:22:38;;;;;;;3.80;3.60;;;25.20;99.90;;;;;;10418665;28;20712;-80
2023/09/13 13:27:40;;;;;;;3.80;3.57;;;25.20;99.90;;;;;;10406697;28;20226;-80
2023/09/13 13:32:42;;;;;;;3.70;3.40;;;25.30;99.90;;;;;;10376616;28;20301;-80
2023/09/13 13:37:47;;;;;;;3.43;3.23;;;25.20;99.90;;;;;;10395437;28;20211;-80
2023/09/13 13:42:49;;;;;;;4.13;3.80;;;25.10;99.90;;;;;;10405520;28;20195;-80
2023/09/13 13:47:51;;;;;;;4.20;3.90;;;25.10;99.90;;;;;;10399563;28;20309;-79
2023/09/13 13:52:54;;;;;;;4.03;3.73;;;25.00;99.90;;;;;;10404878;28;20199;-80
2023/09/13 13:57:56;;;;;;;3.90;3.40;;;25.00;99.90;;;;;;10371143;28;20227;-78
2023/09/13 14:02:59;;;;;;;4.20;3.90;;;25.00;99.90;;;;;;10407439;28;20215;-80
2023/09/13 14:08:02;;;;;;;4.33;3.93;;;25.00;99.90;;;;;;10397020;28;20231;-81
2023/09/13 14:13:04;;;;;;;4.03;3.73;;;24.90;99.90;;;;;;10407897;28;20206;-79
2023/09/13 14:18:07;;;;;;;4.00;3.70;;;24.90;99.90;;;;;;10397621;28;20215;-80
2023/09/13 14:23:12;;;;;;;4.20;3.90;;;24.90;99.90;;;;;;10383056;28;20198;-80
2023/09/13 14:28:14;;;;;;;4.57;4.20;;;24.90;99.90;;;;;;10395764;28;20225;-80
2023/09/13 14:33:18;;;;;;;4.33;4.03;;;24.80;99.90;;;;;;10362816;28;20214;-79
2023/09/13 14:38:21;;;;;;;4.30;4.00;;;24.70;99.90;;;;;;10388167;28;20235;-80
2023/09/13 14:43:23;;;;;;;4.90;4.50;;;24.60;99.90;;;;;;10393803;28;20209;-80
2023/09/13 14:48:26;;;;;;;4.43;4.13;;;24.60;99.90;;;;;;10394427;28;20240;-79
2023/09/13 14:53:29;;;;;;;4.40;4.07;;;24.50;99.90;;;;;;10403005;28;20273;-80
2023/09/13 14:58:31;;;;;;;3.83;3.53;;;24.50;99.90;;;;;;10385904;23;20238;-81
2023/09/13 15:03:34;;;;;;;4.80;4.37;;;24.50;99.90;;;;;;10333958;28;20208;-81
2023/09/13 15:08:38;;;;;;;4.47;4.17;;;24.40;99.90;;;;;;10333505;28;20224;-81
2023/09/13 15:13:40;;;;;;;5.67;4.73;;;24.40;99.90;;;;;;10358495;28;20214;-81
2023/09/13 15:18:42;;;;;;;6.00;4.80;;;24.40;99.90;;;;;;10343046;28;20265;-81
2023/09/13 15:23:45;;;;;;;5.70;5.30;;;24.40;99.90;;;;;;10356021;28;20207;-81
2023/09/13 15:28:48;;;;;;;5.67;5.20;;;24.40;99.90;;;;;;10317472;28;20728;-81
2023/09/13 15:33:50;;;;;;;4.37;4.07;;;24.40;99.90;;;;;;10337415;28;20204;-81
2023/09/13 15:38:53;;;;;;;4.50;4.20;;;24.40;99.90;;;;;;10346468;28;20283;-81
2023/09/13 15:43:55;;;;;;;5.03;4.60;;;24.40;99.90;;;;;;10358067;28;20266;-81
2023/09/13 15:48:57;;;;;;;5.27;4.87;;;24.30;99.90;;;;;;10341804;28;20730;-81
2023/09/13 15:54:01;;;;;;;5.40;4.93;;;24.20;99.90;;;;;;10335698;28;20208;-81
2023/09/13 15:59:03;;;;;;;5.00;4.60;;;24.10;99.90;;;;;;10355866;28;20603;-80
2023/09/13 16:04:06;;;;;;;5.03;4.70;;;24.10;99.90;;;;;;10363873;28;20199;-80
2023/09/13 16:09:10;;;;;;;5.37;4.97;;;24.10;99.90;;;;;;10351993;28;20224;-80
2023/09/13 16:14:12;;;;;;;4.40;4.10;;;24.10;99.90;;;;;;10368315;28;20682;-80
2023/09/13 16:19:14;;;;;;;4.40;4.10;;;24.10;99.90;;;;;;10366924;28;20226;-81
2023/09/13 16:24:18;;;;;;;4.93;4.43;;;24.10;99.90;;;;;;10375552;28;20207;-81
2023/09/13 16:29:20;;;;;;;10.03;4.60;;;24.00;99.90;;;;;;10364005;28;20285;-80
2023/09/13 16:34:25;;;;;;;5.17;4.83;;;23.90;99.90;;;;;;10360734;28;20585;-81
2023/09/13 16:39:29;;;;;;;4.83;4.40;;;23.90;99.90;;;;;;10353715;28;20254;-81
2023/09/13 16:44:31;;;;;;;5.10;4.70;;;23.80;99.90;;;;;;10352435;28;20203;-81
2023/09/13 16:49:33;;;;;;;5.77;5.37;;;23.70;99.90;;;;;;10373210;28;20732;-81
2023/09/13 16:54:38;;;;;;;5.47;4.77;;;23.60;99.90;;;;;;10359509;28;20204;-81
2023/09/13 16:59:40;;;;;;;6.83;6.23;;;23.50;99.90;;;;;;10367564;28;20230;-81
2023/09/13 17:04:42;;;;;;;5.50;5.10;;;23.40;99.90;;;;;;10360527;28;20262;-81
2023/09/13 17:09:46;;;;;;;5.37;4.97;;;23.40;99.90;;;;;;10365394;28;20232;-81
2023/09/13 17:14:48;;;;;;;6.27;5.87;;;23.20;99.90;;;;;;10359111;28;20239;-81
2023/09/13 17:19:50;;;;;;;6.97;5.80;;;23.10;99.90;;;;;;10363350;28;20287;-80
2023/09/13 17:24:53;;;;;;;6.20;5.80;;;23.10;99.90;;;;;;10385990;28;20211;-81
2023/09/13 17:29:55;;;;;;;6.10;5.70;;;23.00;99.90;;;;;;10378384;28;20296;-81
2023/09/13 17:34:58;;;;;;;6.30;5.57;;;23.00;99.90;;;;;;10369838;28;20206;-81
2023/09/13 17:40:01;;;;;;;6.40;5.90;;;22.90;99.90;;;;;;10361833;28;20211;-81
2023/09/13 17:45:04;;;;;;;6.27;5.80;;;22.90;99.90;;;;;;10371386;28;20670;-81
2023/09/13 17:50:06;;;;;;;7.20;6.50;;;22.90;99.90;;;;;;10361713;28;20234;-81
2023/09/13 17:55:10;;;;;;;6.20;5.60;;;22.90;99.90;;;;;;10363206;28;20282;-80
2023/09/13 18:00:13;;;;;;;6.00;5.60;;;22.90;99.90;;;;;;10366962;28;20228;-81
2023/09/13 18:05:16;;;;;;;5.00;4.70;;;22.90;99.90;;;;;;10354264;28;20214;-81
2023/09/13 18:10:19;;;;;;;5.47;5.07;;;22.90;99.90;;;;;;10381716;28;20231;-81
2023/09/13 18:15:21;;;;;;;8.40;5.10;;;22.90;99.90;;;;;;10345674;28;20223;-81
2023/09/13 18:20:24;;;;;;;6.00;5.50;;;22.90;99.90;;;;;;10380885;28;20254;-80
2023/09/13 18:25:29;;;;;;;6.40;5.90;;;22.90;99.90;;;;;;10367435;28;20204;-80
2023/09/13 18:30:31;;;;;;;10.33;5.73;;;22.90;99.90;;;;;;10363634;28;20579;-79
2023/09/13 18:35:34;;;;;;;6.27;5.77;;;22.90;99.90;;;;;;10357201;28;20269;-81
2023/09/13 18:40:38;;;;;;;6.40;5.90;;;22.90;99.90;;;;;;10367368;28;20224;-80
2023/09/13 18:45:40;;;;;;;6.23;5.73;;;22.80;99.90;;;;;;10344378;28;20661;-80
2023/09/13 18:50:53;;;;;;;4.97;4.57;;;22.80;99.90;;;;;;10362214;28;20317;-80
2023/09/13 18:55:57;;;;;;;5.43;5.00;;;22.80;99.90;;;;;;10363464;28;20208;-81
2023/09/13 19:01:01;;;;;;;5.53;5.03;;;22.80;99.90;;;;;;10360252;28;20230;-81
2023/09/13 19:06:04;;;;;;;5.87;5.37;;;22.70;99.90;;;;;;10371411;28;20202;-81
2023/09/13 19:11:13;;;;;;;6.43;6.03;;;22.70;99.90;;;;;;10348862;28;20229;-81
2023/09/13 19:16:16;;;;;;;6.27;5.77;;;22.80;99.90;;;;;;10355409;28;20697;-80
2023/09/13 19:21:18;;;;;;;5.60;5.20;;;22.70;99.90;;;;;;10350314;28;20199;-81
2023/09/13 19:26:22;;;;;;;5.80;5.30;;;22.70;99.90;;;;;;10367622;28;20706;-81
2023/09/13 19:31:25;;;;;;;6.00;5.60;;;22.70;99.90;;;;;;10356689;28;20609;-81
2023/09/13 19:36:27;;;;;;;5.50;5.00;;;22.60;99.90;;;;;;10355789;28;20319;-80
2023/09/13 19:41:30;;;;;;;5.40;4.43;;;22.60;99.90;;;;;;10346441;28;20254;-81
2023/09/13 19:46:32;;;;;;;5.40;4.97;;;22.60;99.90;;;;;;10355687;28;20229;-81
2023/09/13 19:51:35;;;;;;;6.30;5.70;;;22.60;99.90;;;;;;10356649;28;20305;-80
2023/09/13 19:56:38;;;;;;;5.40;5.00;;;22.50;99.90;;;;;;10379864;28;20589;-80
2023/09/13 20:01:40;;;;;;;8.67;5.93;;;22.40;99.90;;;;;;10368856;28;20636;-81
2023/09/13 20:06:43;;;;;;;6.03;5.53;;;22.40;99.90;;;;;;10375991;28;20701;-80
2023/09/13 20:12:02;;;;;;;5.63;5.13;;;22.30;99.90;;;;;;10354588;28;20220;-81
2023/09/13 20:17:06;;;;;;;6.27;5.67;;;22.30;99.90;;;;;;10368504;28;20272;-80
2023/09/13 20:22:09;;;;;;;6.00;5.40;;;22.20;99.90;;;;;;10354096;28;20207;-81
2023/09/13 20:27:12;;;;;;;5.33;5.03;;;22.20;99.90;;;;;;10369816;28;20800;-80
2023/09/13 20:32:14;;;;;;;6.37;5.83;;;22.10;99.90;;;;;;10360386;28;20203;-80
2023/09/13 20:37:16;;;;;;;5.47;5.07;;;22.00;99.90;;;;;;10358594;28;20664;-81
2023/09/13 20:42:20;;;;;;;6.47;5.97;;;22.00;99.90;;;;;;10328532;28;20203;-80
2023/09/13 20:47:23;;;;;;;6.67;6.07;;;22.00;99.90;;;;;;10346529;28;20232;-80
2023/09/13 20:52:25;;;;;;;5.40;5.00;;;22.00;99.90;;;;;;10355441;28;20463;-80
2023/09/13 20:57:29;;;;;;;5.50;5.07;;;22.00;99.90;;;;;;10369283;28;20228;-80
2023/09/13 21:02:31;;;;;;;6.23;5.63;;;21.90;99.90;;;;;;10349282;28;20199;-80
2023/09/13 21:07:33;;;;;;;5.57;5.07;;;21.90;99.90;;;;;;10366193;28;20246;-81
2023/09/13 21:12:36;;;;;;;5.30;4.97;;;21.90;99.90;;;;;;10369246;28;20682;-79
2023/09/13 21:17:39;;;;;;;5.53;5.13;;;21.80;99.90;;;;;;10358451;28;20761;-81
2023/09/13 21:22:41;;;;;;;6.27;5.77;;;21.80;99.90;;;;;;10333953;28;20565;-80
2023/09/13 21:27:45;;;;;;;6.30;5.80;;;21.70;99.90;;;;;;10345917;28;20228;-80
2023/09/13 21:32:48;;;;;;;6.30;5.70;;;21.60;99.90;;;;;;10338197;28;20207;-80
2023/09/13 21:37:50;;;;;;;6.43;5.80;;;21.50;99.90;;;;;;10364325;28;20223;-81
2023/09/13 21:42:56;;;;;;;5.93;5.43;;;21.50;99.90;;;;;;10335842;28;20671;-80
2023/09/13 21:47:58;;;;;;;6.90;6.30;;;21.40;99.90;;;;;;10355297;28;20588;-81
2023/09/13 21:53:00;;;;;;;5.30;4.90;;;21.40;99.90;;;;;;10338209;28;20674;-80
2023/09/13 21:58:06;;;;;;;5.57;5.17;;;21.30;99.90;;;;;;10370632;28;20226;-80
2023/09/13 22:03:09;;;;;;;4.50;4.30;;;21.20;99.90;;;;;;10370406;28;20203;-81
2023/09/13 22:08:11;;;;;;;7.63;4.33;;;21.10;99.90;;;;;;10369667;28;20227;-80
2023/09/13 22:13:14;;;;;;;5.47;4.97;;;21.00;99.90;;;;;;10361132;28;20227;-80
2023/09/13 22:18:17;;;;;;;4.97;4.57;;;20.90;99.90;;;;;;10371969;28;20306;-80
2023/09/13 22:23:21;;;;;;;5.13;4.63;;;20.90;99.90;;;;;;10358412;28;20617;-80
2023/09/13 22:28:24;;;;;;;4.73;4.20;;;20.80;99.90;;;;;;10333035;28;20580;-80
2023/09/13 22:33:28;;;;;;;4.93;4.53;;;20.80;99.90;;;;;;10336376;28;20268;-80
2023/09/13 22:38:31;;;;;;;4.47;4.07;;;20.80;99.90;;;;;;10323987;28;20729;-79
2023/09/13 22:43:35;;;;;;;4.73;4.30;;;20.80;99.90;;;;;;10332996;28;20262;-80
2023/09/13 22:48:37;;;;;;;5.10;4.70;;;20.80;99.90;;;;;;10359401;28;20708;-80
2023/09/13 22:53:39;;;;;;;4.97;4.47;;;20.90;99.90;;;;;;10345287;28;20270;-80
2023/09/13 22:58:42;;;;;;;4.80;4.40;;;20.90;99.90;;;;;;10360563;28;20228;-80
2023/09/13 23:03:45;;;;;;;5.43;4.93;;;21.00;99.90;;;;;;10354139;28;20246;-80
2023/09/13 23:08:47;;;;;;;4.43;4.13;;;21.10;99.90;;;;;;10366696;28;20306;-80
2023/09/13 23:13:52;;;;;;;5.50;5.00;;;21.10;99.90;;;;;;10380909;28;20202;-80
2023/09/13 23:18:54;;;;;;;5.63;5.13;;;21.20;99.90;;;;;;10366197;28;20223;-80
2023/09/13 23:23:57;;;;;;;5.13;4.83;;;21.20;99.90;;;;;;10363023;28;20198;-80
2023/09/13 23:29:00;;;;;;;5.03;4.63;;;21.20;99.90;;;;;;10382710;28;20228;-80
2023/09/13 23:34:03;;;;;;;5.43;4.93;;;21.20;99.90;;;;;;10358344;28;20200;-80
2023/09/13 23:39:05;;;;;;;5.33;4.87;;;21.20;99.90;;;;;;10383108;28;20226;-80
2023/09/13 23:44:09;;;;;;;6.37;5.77;;;21.20;99.90;;;;;;10365699;28;20316;-80
2023/09/13 23:49:11;;;;;;;6.37;5.77;;;21.20;99.90;;;;;;10369683;28;20253;-80
2023/09/13 23:54:13;;;;;;;6.23;5.63;;;21.20;99.90;;;;;;10368179;28;20204;-80
2023/09/13 23:59:16;;;;;;;6.33;5.73;;;21.20;99.90;;;;;;10377399;28;20253;-80
